Time;durP1;ratioP1;P1;durP2;ratioP2;P2;SDS_P1;SDS_P2;PMS_P1;PMS_P2;Temp;Humidity;BMP_temperature;BMP_pressure;BME280_temperature;BME280_humidity;BME280_pressure;Samples;Min_cycle;Max_cycle;Signal;HPM_P1;HPM_P2
2021/04/25 00:00:22;;;;;;;7.83;1.77;;;4.40;99.90;;;;;;4981583;28;20238;-52
2021/04/25 00:02:50;;;;;;;5.93;1.90;;;4.40;99.90;;;;;;4984770;28;20237;-52
2021/04/25 00:05:20;;;;;;;5.57;2.03;;;4.50;99.90;;;;;;4990948;28;20260;-52
2021/04/25 00:07:48;;;;;;;8.47;2.23;;;4.70;99.90;;;;;;4990264;28;20240;-51
2021/04/25 00:10:19;;;;;;;5.83;2.20;;;4.70;99.90;;;;;;4993171;28;20284;-51
2021/04/25 00:12:47;;;;;;;7.67;1.87;;;4.90;99.90;;;;;;4998653;28;20368;-51
2021/04/25 00:15:20;;;;;;;5.60;1.87;;;4.90;99.90;;;;;;4988974;28;20265;-51
2021/04/25 00:17:47;;;;;;;8.00;2.70;;;5.00;99.90;;;;;;4987618;28;21830;-52
2021/04/25 00:20:16;;;;;;;6.07;1.90;;;4.90;99.90;;;;;;4988085;28;20240;-51
2021/04/25 00:22:45;;;;;;;6.60;2.17;;;4.80;99.90;;;;;;4984805;28;20248;-51
2021/04/25 00:25:14;;;;;;;3.83;2.10;;;4.90;99.90;;;;;;4988651;28;20249;-52
2021/04/25 00:27:42;;;;;;;6.03;1.80;;;4.80;99.90;;;;;;4988181;28;20241;-52
2021/04/25 00:30:16;;;;;;;7.33;2.30;;;4.90;99.90;;;;;;4986979;28;20245;-53
2021/04/25 00:32:44;;;;;;;3.93;2.17;;;4.80;99.90;;;;;;4988011;28;20236;-51
2021/04/25 00:35:12;;;;;;;3.43;1.80;;;4.90;99.90;;;;;;4988458;28;20767;-53
2021/04/25 00:37:40;;;;;;;6.57;2.00;;;4.90;99.90;;;;;;4987419;28;20639;-51
2021/04/25 00:40:10;;;;;;;4.87;1.90;;;4.90;99.90;;;;;;4988021;28;20240;-55
2021/04/25 00:42:38;;;;;;;5.40;1.90;;;4.90;99.90;;;;;;4987744;28;20292;-51
2021/04/25 00:45:12;;;;;;;6.17;1.90;;;4.90;99.90;;;;;;4988632;28;20237;-53
2021/04/25 00:47:42;;;;;;;6.20;1.80;;;4.90;99.90;;;;;;4987329;28;20240;-51
2021/04/25 00:50:12;;;;;;;4.13;1.70;;;4.90;99.90;;;;;;4986200;28;20229;-52
2021/04/25 00:52:43;;;;;;;5.10;2.10;;;4.90;99.90;;;;;;4977734;28;20238;-52
2021/04/25 00:55:13;;;;;;;6.50;2.00;;;4.90;99.90;;;;;;4968701;28;20250;-51
2021/04/25 00:57:41;;;;;;;6.47;2.03;;;4.90;99.90;;;;;;4967990;28;20279;-51
2021/04/25 01:00:12;;;;;;;7.77;1.97;;;4.90;99.90;;;;;;4967802;28;20239;-51
2021/04/25 01:02:40;;;;;;;8.67;2.10;;;4.90;99.90;;;;;;4990902;28;20256;-54
2021/04/25 01:05:12;;;;;;;4.83;2.10;;;5.10;99.90;;;;;;4995871;28;20249;-51
2021/04/25 01:07:39;;;;;;;5.50;2.57;;;5.00;99.90;;;;;;4981406;28;20257;-51
2021/04/25 01:10:09;;;;;;;4.67;2.53;;;5.10;99.90;;;;;;4995134;28;20242;-51
2021/04/25 01:12:37;;;;;;;3.50;1.90;;;5.10;99.90;;;;;;4983482;28;20886;-51
2021/04/25 01:15:06;;;;;;;6.47;2.20;;;5.10;99.90;;;;;;4991243;28;20600;-54
2021/04/25 01:17:34;;;;;;;6.67;2.30;;;5.00;99.90;;;;;;4990871;28;20269;-51
2021/04/25 01:20:02;;;;;;;4.57;2.03;;;5.10;99.90;;;;;;4985467;28;20603;-52
2021/04/25 01:22:30;;;;;;;6.73;2.03;;;5.20;99.90;;;;;;4972733;28;20250;-52
2021/04/25 01:24:58;;;;;;;7.10;2.20;;;5.20;99.90;;;;;;4971838;28;20238;-51
2021/04/25 01:27:25;;;;;;;9.33;2.30;;;5.00;99.90;;;;;;4971637;28;20242;-51
2021/04/25 01:29:53;;;;;;;5.57;2.10;;;5.10;99.90;;;;;;4971247;28;20248;-51
2021/04/25 01:32:20;;;;;;;9.27;2.47;;;5.10;99.90;;;;;;4970024;28;20295;-52
2021/04/25 01:34:47;;;;;;;6.60;2.40;;;5.00;99.90;;;;;;4989265;28;20686;-52
2021/04/25 01:37:15;;;;;;;6.73;2.40;;;5.10;99.90;;;;;;4990600;28;20316;-52
2021/04/25 01:39:43;;;;;;;7.33;2.53;;;5.00;99.90;;;;;;4990605;28;20233;-53
2021/04/25 01:42:11;;;;;;;7.30;2.50;;;4.90;99.90;;;;;;4990465;28;20252;-50
2021/04/25 01:44:38;;;;;;;5.80;2.03;;;4.80;99.90;;;;;;4990301;28;20244;-51
2021/04/25 01:47:05;;;;;;;5.57;2.20;;;4.70;99.90;;;;;;4990460;28;20234;-51
2021/04/25 01:49:33;;;;;;;5.90;2.00;;;4.70;99.90;;;;;;4974102;28;20328;-53
2021/04/25 01:52:00;;;;;;;7.77;2.10;;;4.70;99.90;;;;;;4970811;28;20326;-53
2021/04/25 01:54:28;;;;;;;3.73;1.80;;;4.70;99.90;;;;;;4971226;28;20321;-52
2021/04/25 01:56:56;;;;;;;6.37;1.87;;;4.60;99.90;;;;;;4972675;28;20238;-51
2021/04/25 01:59:24;;;;;;;4.47;2.03;;;4.70;99.90;;;;;;4985382;28;20240;-51
2021/04/25 02:01:51;;;;;;;6.73;1.90;;;4.70;99.90;;;;;;4973303;28;20257;-52
2021/04/25 02:04:19;;;;;;;3.40;1.90;;;4.80;99.90;;;;;;4977664;28;20249;-51
2021/04/25 02:06:46;;;;;;;6.50;2.40;;;4.80;99.90;;;;;;4975228;28;20233;-52
2021/04/25 02:09:14;;;;;;;7.27;1.97;;;4.90;99.90;;;;;;4977832;28;20239;-52
2021/04/25 02:11:42;;;;;;;5.93;2.00;;;4.80;99.90;;;;;;4970134;28;20325;-54
2021/04/25 02:14:10;;;;;;;7.10;2.20;;;4.80;99.90;;;;;;4992563;28;20692;-52
2021/04/25 02:16:37;;;;;;;5.83;2.30;;;4.70;99.90;;;;;;4989900;28;20257;-51
2021/04/25 02:19:04;;;;;;;4.30;1.70;;;4.70;99.90;;;;;;4989964;28;20603;-51
2021/04/25 02:21:32;;;;;;;6.97;2.10;;;4.70;99.90;;;;;;4976017;28;20724;-51
2021/04/25 02:23:59;;;;;;;5.80;1.80;;;4.70;99.90;;;;;;4970515;28;20266;-53
2021/04/25 02:26:26;;;;;;;7.47;2.13;;;4.70;99.90;;;;;;4970702;28;20305;-51
2021/04/25 02:28:53;;;;;;;6.00;1.70;;;4.70;99.90;;;;;;4970284;28;20321;-52
2021/04/25 02:31:22;;;;;;;7.13;2.07;;;4.70;99.90;;;;;;4969504;28;20257;-52
2021/04/25 02:33:49;;;;;;;5.20;2.10;;;4.70;99.90;;;;;;4969988;28;20631;-51
2021/04/25 02:36:20;;;;;;;7.20;1.80;;;4.70;99.90;;;;;;4970251;28;20241;-53
2021/04/25 02:38:47;;;;;;;7.70;1.87;;;4.70;99.90;;;;;;4970184;28;20254;-51
2021/04/25 02:41:14;;;;;;;7.27;1.70;;;4.80;99.90;;;;;;4969842;28;20296;-52
2021/04/25 02:43:42;;;;;;;8.17;2.00;;;5.00;99.90;;;;;;4969712;28;20234;-51
2021/04/25 02:46:09;;;;;;;9.93;1.90;;;5.20;99.90;;;;;;4983042;28;20301;-54
2021/04/25 02:48:37;;;;;;;6.27;1.77;;;5.30;99.90;;;;;;4989570;28;20234;-52
2021/04/25 02:51:05;;;;;;;4.10;1.47;;;5.40;99.90;;;;;;4988228;28;20326;-51
2021/04/25 02:53:33;;;;;;;5.97;1.90;;;5.70;99.90;;;;;;4986993;28;20230;-52
2021/04/25 02:56:01;;;;;;;6.30;2.10;;;5.80;99.90;;;;;;4986891;28;20319;-52
2021/04/25 02:58:28;;;;;;;4.77;1.50;;;5.50;99.90;;;;;;4985381;28;20598;-52
2021/04/25 03:00:55;;;;;;;4.37;1.80;;;5.30;99.90;;;;;;4992731;28;20246;-51
2021/04/25 03:03:24;;;;;;;5.97;1.80;;;5.20;99.90;;;;;;4991408;28;20233;-53
2021/04/25 03:05:55;;;;;;;5.97;1.77;;;5.10;99.90;;;;;;4998407;28;20303;-51
2021/04/25 03:08:22;;;;;;;4.37;1.27;;;5.00;99.90;;;;;;4987737;28;20247;-51
2021/04/25 03:10:50;;;;;;;4.33;1.93;;;4.80;99.90;;;;;;4986945;28;20675;-51
2021/04/25 03:13:18;;;;;;;4.17;1.60;;;4.80;99.90;;;;;;4979277;28;20257;-51
2021/04/25 03:15:45;;;;;;;5.43;1.30;;;4.80;99.90;;;;;;4970126;28;20705;-53
2021/04/25 03:18:13;;;;;;;7.30;1.30;;;4.80;99.90;;;;;;4971382;28;20614;-52
2021/04/25 03:20:41;;;;;;;8.13;1.80;;;4.70;99.90;;;;;;4968944;28;20724;-51
2021/04/25 03:23:09;;;;;;;4.47;1.47;;;4.70;99.90;;;;;;4969030;28;20244;-52
2021/04/25 03:25:36;;;;;;;7.93;1.30;;;4.70;99.90;;;;;;4969282;28;20238;-52
2021/04/25 03:28:04;;;;;;;8.43;1.40;;;4.70;99.90;;;;;;4969347;28;20243;-53
2021/04/25 03:30:31;;;;;;;8.43;1.80;;;4.70;99.90;;;;;;4964923;28;20243;-52
2021/04/25 03:32:59;;;;;;;6.50;1.30;;;4.60;99.90;;;;;;4949863;28;20235;-51
2021/04/25 03:35:26;;;;;;;5.20;1.77;;;4.50;99.90;;;;;;4950642;28;20306;-51
2021/04/25 03:37:53;;;;;;;3.73;1.37;;;4.50;99.90;;;;;;4950060;28;20246;-52
2021/04/25 03:40:22;;;;;;;8.93;1.83;;;4.50;99.90;;;;;;4949131;28;20309;-51
2021/04/25 03:42:49;;;;;;;4.57;1.47;;;4.50;99.90;;;;;;4949621;28;20318;-52
2021/04/25 03:45:19;;;;;;;5.57;1.60;;;4.50;99.90;;;;;;4950048;28;20254;-53
2021/04/25 03:47:49;;;;;;;3.83;1.30;;;4.40;99.90;;;;;;4949778;28;20253;-52
2021/04/25 03:50:22;;;;;;;3.23;1.23;;;4.40;99.90;;;;;;4949091;28;20270;-51
2021/04/25 03:52:49;;;;;;;6.47;1.47;;;4.40;99.90;;;;;;4949679;28;20646;-51
2021/04/25 03:55:19;;;;;;;5.53;1.43;;;4.40;99.90;;;;;;4950794;28;20749;-51
2021/04/25 03:57:48;;;;;;;5.47;1.40;;;4.30;99.90;;;;;;4965963;28;20225;-52
2021/04/25 04:00:17;;;;;;;5.23;1.43;;;4.30;99.90;;;;;;4988024;28;20241;-52
2021/04/25 04:02:45;;;;;;;7.23;1.50;;;4.30;99.90;;;;;;5000545;28;20254;-51
2021/04/25 04:05:14;;;;;;;6.27;1.47;;;4.30;99.90;;;;;;4987864;28;20246;-51
2021/04/25 04:07:42;;;;;;;4.37;1.27;;;4.30;99.90;;;;;;4988209;28;20257;-51
2021/04/25 04:10:11;;;;;;;4.60;1.43;;;4.30;99.90;;;;;;4987902;28;20238;-51
2021/04/25 04:12:39;;;;;;;6.13;1.50;;;4.30;99.90;;;;;;4987785;28;20226;-55
2021/04/25 04:15:09;;;;;;;6.97;1.40;;;4.30;99.90;;;;;;4987933;28;20236;-51
2021/04/25 04:17:36;;;;;;;6.37;1.40;;;4.30;99.90;;;;;;4969125;28;20237;-51
2021/04/25 04:20:06;;;;;;;4.07;1.30;;;4.30;99.90;;;;;;4970246;28;20233;-52
2021/04/25 04:22:34;;;;;;;8.87;1.80;;;4.30;99.90;;;;;;4968368;28;20242;-51
2021/04/25 04:25:01;;;;;;;5.37;1.50;;;4.30;99.90;;;;;;4969101;28;20249;-53
2021/04/25 04:27:28;;;;;;;8.07;1.60;;;4.40;99.90;;;;;;4968659;28;20768;-51
2021/04/25 04:29:56;;;;;;;4.90;1.70;;;4.30;99.90;;;;;;4968749;28;20739;-51
2021/04/25 04:32:24;;;;;;;3.57;1.60;;;4.30;99.90;;;;;;4949548;28;20295;-53
2021/04/25 04:34:55;;;;;;;10.93;2.00;;;4.30;99.90;;;;;;4968930;28;20321;-52
2021/04/25 04:37:23;;;;;;;5.63;1.37;;;4.30;99.90;;;;;;4971141;28;20710;-54
2021/04/25 04:39:50;;;;;;;3.83;1.43;;;4.40;99.90;;;;;;4972481;28;20753;-52
2021/04/25 04:42:17;;;;;;;4.93;1.57;;;4.40;99.90;;;;;;4971688;28;20238;-51
2021/04/25 04:44:45;;;;;;;4.10;1.30;;;4.40;99.90;;;;;;4972404;28;20725;-52
2021/04/25 04:47:12;;;;;;;6.23;1.63;;;4.40;99.90;;;;;;4977241;28;20311;-52
2021/04/25 04:49:40;;;;;;;6.17;1.37;;;4.40;99.90;;;;;;4990855;28;20241;-52
2021/04/25 04:52:08;;;;;;;5.20;1.70;;;4.50;99.90;;;;;;4990355;28;20606;-54
2021/04/25 04:54:36;;;;;;;4.70;1.67;;;4.50;99.90;;;;;;4980466;28;20249;-52
2021/04/25 04:57:04;;;;;;;6.60;1.73;;;4.60;99.90;;;;;;4975522;28;20571;-51
2021/04/25 04:59:31;;;;;;;6.13;1.80;;;4.60;99.90;;;;;;4998278;28;20234;-51
2021/04/25 05:01:58;;;;;;;6.73;1.20;;;4.70;99.90;;;;;;4960845;28;20239;-55
2021/04/25 05:04:26;;;;;;;4.90;1.20;;;4.80;99.90;;;;;;4952845;28;20244;-53
2021/04/25 05:06:54;;;;;;;6.10;1.43;;;4.80;99.90;;;;;;4952311;28;20235;-52
2021/04/25 05:09:21;;;;;;;9.73;1.60;;;4.80;99.90;;;;;;4952282;28;20242;-51
2021/04/25 05:11:48;;;;;;;5.30;1.50;;;4.80;99.90;;;;;;4951583;28;20862;-51
2021/04/25 05:14:16;;;;;;;7.77;2.03;;;4.80;99.90;;;;;;4952500;28;20723;-51
2021/04/25 05:16:43;;;;;;;7.30;1.57;;;5.00;99.90;;;;;;4952122;28;20270;-52
2021/04/25 05:19:10;;;;;;;4.27;1.40;;;5.10;99.90;;;;;;4968720;28;20384;-53
2021/04/25 05:21:38;;;;;;;4.10;1.63;;;5.20;99.90;;;;;;4971310;28;20242;-51
2021/04/25 05:24:08;;;;;;;7.77;1.90;;;5.20;99.90;;;;;;4976571;28;20246;-51
2021/04/25 05:26:36;;;;;;;3.40;1.43;;;5.30;99.90;;;;;;4976694;28;20249;-52
2021/04/25 05:29:03;;;;;;;4.97;1.93;;;5.30;99.90;;;;;;4972146;28;20245;-51
2021/04/25 05:31:31;;;;;;;4.83;1.47;;;5.40;99.90;;;;;;4965924;28;20243;-51
2021/04/25 05:33:58;;;;;;;6.47;2.40;;;5.40;99.90;;;;;;4952638;28;20250;-51
2021/04/25 05:36:26;;;;;;;6.87;1.80;;;5.50;99.90;;;;;;4951983;28;20310;-51
2021/04/25 05:38:53;;;;;;;4.00;1.67;;;5.50;99.90;;;;;;4952317;28;20281;-51
2021/04/25 05:41:22;;;;;;;5.60;1.70;;;5.60;99.90;;;;;;4953379;28;20243;-52
2021/04/25 05:43:50;;;;;;;5.57;2.13;;;5.60;99.90;;;;;;4971043;28;20256;-51
2021/04/25 05:46:18;;;;;;;5.27;2.07;;;5.60;99.90;;;;;;4971143;28;20253;-55
2021/04/25 05:48:46;;;;;;;3.87;1.87;;;5.70;99.90;;;;;;4971137;28;20790;-51
2021/04/25 05:51:14;;;;;;;5.57;2.20;;;5.70;99.90;;;;;;4963967;28;20280;-51
2021/04/25 05:53:42;;;;;;;5.73;2.17;;;5.90;99.90;;;;;;4964923;28;20756;-52
2021/04/25 05:56:09;;;;;;;5.27;2.30;;;6.00;99.90;;;;;;4962122;28;20247;-53
2021/04/25 05:58:37;;;;;;;3.47;2.07;;;6.10;99.90;;;;;;4959426;28;20253;-53
2021/04/25 06:01:05;;;;;;;3.67;1.97;;;6.10;99.90;;;;;;4958632;28;20649;-51
2021/04/25 06:03:32;;;;;;;2.97;1.90;;;6.20;99.90;;;;;;4970744;28;20249;-51
2021/04/25 06:06:00;;;;;;;4.27;2.47;;;6.30;99.90;;;;;;4974377;28;20254;-53
2021/04/25 06:08:27;;;;;;;5.20;2.07;;;6.40;99.90;;;;;;4974933;28;20248;-51
2021/04/25 06:10:54;;;;;;;5.27;2.00;;;6.50;99.90;;;;;;4972844;28;20249;-52
2021/04/25 06:13:22;;;;;;;4.03;2.23;;;6.50;99.90;;;;;;4970576;28;20233;-52
2021/04/25 06:15:50;;;;;;;6.80;2.17;;;6.60;99.90;;;;;;4971461;28;20926;-51
2021/04/25 06:18:17;;;;;;;6.80;2.10;;;6.70;99.90;;;;;;4976728;28;20254;-51
2021/04/25 06:20:44;;;;;;;7.30;2.00;;;6.90;99.90;;;;;;4969424;28;20246;-51
2021/04/25 06:23:13;;;;;;;5.37;2.13;;;6.90;99.90;;;;;;4968658;28;20789;-51
2021/04/25 06:25:41;;;;;;;5.80;2.00;;;7.00;99.90;;;;;;4982632;28;20222;-52
2021/04/25 06:28:08;;;;;;;5.47;2.20;;;7.10;99.90;;;;;;4986412;28;20241;-53
2021/04/25 06:30:36;;;;;;;5.87;2.40;;;7.00;99.90;;;;;;4988535;28;20245;-52
2021/04/25 06:33:06;;;;;;;7.10;2.53;;;7.20;99.90;;;;;;4989240;28;20244;-51
2021/04/25 06:35:33;;;;;;;8.93;2.37;;;7.40;99.90;;;;;;4990109;28;20253;-52
2021/04/25 06:38:00;;;;;;;4.67;2.00;;;7.60;99.90;;;;;;4990055;28;20255;-52
2021/04/25 06:40:28;;;;;;;4.67;2.00;;;7.80;99.90;;;;;;4980433;28;20246;-51
2021/04/25 06:42:55;;;;;;;7.20;2.40;;;7.90;99.90;;;;;;4969431;28;20242;-53
2021/04/25 06:45:24;;;;;;;6.20;2.40;;;8.00;99.90;;;;;;4970280;28;20280;-51
2021/04/25 06:47:51;;;;;;;4.93;2.10;;;8.00;99.90;;;;;;4972879;28;20635;-52
2021/04/25 06:50:20;;;;;;;6.17;2.20;;;8.10;99.90;;;;;;4989811;28;20316;-53
2021/04/25 06:52:50;;;;;;;6.07;2.30;;;8.30;99.90;;;;;;4991957;28;20597;-52
2021/04/25 06:55:24;;;;;;;4.40;2.27;;;8.40;99.90;;;;;;4999567;28;20778;-52
2021/04/25 06:57:52;;;;;;;3.93;1.83;;;8.60;99.90;;;;;;4989426;28;20658;-51
2021/04/25 07:00:23;;;;;;;5.83;2.00;;;8.80;99.90;;;;;;4984150;28;20248;-51
2021/04/25 07:02:56;;;;;;;5.43;2.00;;;8.90;99.90;;;;;;4969787;28;20304;-54
2021/04/25 07:05:25;;;;;;;5.47;2.10;;;9.00;99.90;;;;;;4970152;28;20490;-51
2021/04/25 07:07:53;;;;;;;3.37;1.87;;;9.10;99.90;;;;;;4965636;28;20246;-51
2021/04/25 07:10:20;;;;;;;3.93;1.90;;;9.40;99.90;;;;;;4959645;28;20299;-53
2021/04/25 07:12:48;;;;;;;4.07;1.80;;;9.50;99.90;;;;;;4952620;28;20239;-54
2021/04/25 07:15:15;;;;;;;4.07;2.43;;;9.60;99.90;;;;;;4948017;28;20723;-51
2021/04/25 07:17:42;;;;;;;4.43;2.10;;;9.90;99.90;;;;;;4960289;28;20334;-53
2021/04/25 07:20:12;;;;;;;4.77;1.90;;;10.40;99.90;;;;;;4965767;28;20247;-51
2021/04/25 07:22:41;;;;;;;3.97;1.90;;;10.40;99.90;;;;;;4960957;28;20320;-51
2021/04/25 07:25:10;;;;;;;6.13;1.80;;;10.30;99.90;;;;;;4961843;28;20287;-51
2021/04/25 07:27:38;;;;;;;3.27;1.57;;;10.20;99.90;;;;;;4951675;28;20244;-52
2021/04/25 07:30:08;;;;;;;5.13;1.70;;;10.50;99.90;;;;;;4983915;28;20244;-52
2021/04/25 07:32:37;;;;;;;2.57;1.23;;;10.50;99.90;;;;;;4970524;28;20286;-53
2021/04/25 07:35:07;;;;;;;3.70;1.80;;;10.80;99.90;;;;;;4960643;28;20244;-53
2021/04/25 07:37:47;;;;;;;3.87;1.80;;;10.70;99.90;;;;;;4963770;28;20264;-54
2021/04/25 07:40:18;;;;;;;2.93;1.50;;;10.70;99.90;;;;;;4957773;28;20751;-52
2021/04/25 07:42:46;;;;;;;2.60;1.33;;;10.90;99.90;;;;;;4958691;28;20911;-51
2021/04/25 07:45:14;;;;;;;1.93;1.30;;;10.80;99.90;;;;;;4961713;28;20662;-52
2021/04/25 07:47:42;;;;;;;3.60;1.60;;;10.70;99.90;;;;;;4960078;28;20231;-54
2021/04/25 07:50:13;;;;;;;3.97;1.60;;;10.50;99.90;;;;;;4958155;28;20252;-51
2021/04/25 07:52:41;;;;;;;1.53;1.27;;;10.80;99.90;;;;;;4965915;28;20240;-54
2021/04/25 07:55:10;;;;;;;3.30;1.43;;;11.20;99.90;;;;;;4974102;28;20643;-51
2021/04/25 07:57:38;;;;;;;2.87;1.30;;;11.10;99.90;;;;;;4987761;28;20378;-52
2021/04/25 08:00:08;;;;;;;2.57;1.10;;;11.00;99.90;;;;;;4955330;28;20336;-53
2021/04/25 08:02:37;;;;;;;2.37;0.90;;;10.90;99.90;;;;;;4939145;28;20609;-56
2021/04/25 08:05:06;;;;;;;1.80;1.13;;;10.90;99.90;;;;;;4957345;28;20551;-53
2021/04/25 08:07:33;;;;;;;2.97;1.60;;;11.10;99.90;;;;;;4939289;28;20244;-54
2021/04/25 08:10:00;;;;;;;2.60;1.20;;;11.40;99.90;;;;;;4937029;28;20336;-51
2021/04/25 08:12:28;;;;;;;4.37;1.10;;;11.20;99.90;;;;;;4942615;28;20598;-51
2021/04/25 08:14:56;;;;;;;2.60;1.00;;;10.90;99.90;;;;;;4954294;28;20708;-55
2021/04/25 08:17:23;;;;;;;4.90;1.20;;;11.10;99.90;;;;;;4960593;28;20253;-52
2021/04/25 08:19:51;;;;;;;2.93;1.03;;;11.80;99.90;;;;;;4949121;28;20251;-54
2021/04/25 08:22:19;;;;;;;1.27;1.00;;;12.00;99.90;;;;;;4946716;28;20267;-53
2021/04/25 08:24:46;;;;;;;1.50;0.67;;;12.20;99.90;;;;;;4947338;28;20298;-51
2021/04/25 08:27:13;;;;;;;1.47;0.70;;;12.20;99.90;;;;;;4942488;28;20251;-51
2021/04/25 08:29:41;;;;;;;1.90;1.10;;;12.10;99.90;;;;;;4959160;28;20232;-54
2021/04/25 08:32:09;;;;;;;1.53;0.70;;;12.40;99.90;;;;;;4961745;28;20236;-51
2021/04/25 08:34:36;;;;;;;2.37;0.83;;;12.80;99.90;;;;;;4967698;28;20248;-53
2021/04/25 08:37:04;;;;;;;2.27;0.80;;;12.80;99.90;;;;;;4967242;28;21398;-53
2021/04/25 08:39:31;;;;;;;2.43;0.87;;;13.00;99.90;;;;;;4965506;28;21559;-52
2021/04/25 08:41:58;;;;;;;2.07;1.00;;;13.30;99.90;;;;;;4962120;28;20253;-51
2021/04/25 08:44:26;;;;;;;1.60;0.83;;;12.90;99.90;;;;;;4963607;28;20245;-53
2021/04/25 08:46:55;;;;;;;2.53;0.90;;;12.80;99.90;;;;;;4963484;28;20246;-55
2021/04/25 08:49:26;;;;;;;1.20;0.80;;;13.10;99.80;;;;;;4960779;28;20246;-54
2021/04/25 08:51:55;;;;;;;1.53;0.93;;;13.20;99.90;;;;;;4962960;28;20735;-53
2021/04/25 08:54:23;;;;;;;1.83;1.10;;;13.60;99.90;;;;;;4961258;28;20784;-54
2021/04/25 08:56:51;;;;;;;2.37;0.70;;;13.50;99.50;;;;;;4964458;28;20248;-51
2021/04/25 08:59:19;;;;;;;1.80;0.73;;;13.50;99.30;;;;;;4970030;28;20494;-52
2021/04/25 09:01:46;;;;;;;1.40;1.00;;;13.90;98.40;;;;;;4978420;28;20648;-52
2021/04/25 09:04:14;;;;;;;1.30;0.80;;;13.70;95.90;;;;;;4961042;28;20250;-51
2021/04/25 09:07:00;;;;;;;1.23;0.70;;;13.10;94.40;;;;;;4961036;28;20704;-51
2021/04/25 09:09:46;;;;;;;1.77;0.70;;;12.30;94.40;;;;;;4987924;28;20299;-52
2021/04/25 09:12:32;;;;;;;1.33;0.90;;;12.00;96.90;;;;;;4971151;28;20716;-53
2021/04/25 09:15:02;;;;;;;1.20;0.73;;;11.90;97.80;;;;;;4955946;28;20767;-51
2021/04/25 09:17:49;;;;;;;1.93;0.90;;;12.00;98.30;;;;;;4976981;28;20260;-54
2021/04/25 09:20:17;;;;;;;2.53;0.80;;;11.70;98.20;;;;;;4976752;28;20350;-52
2021/04/25 09:22:49;;;;;;;3.80;1.07;;;11.60;97.00;;;;;;4967555;28;21513;-51
2021/04/25 09:25:19;;;;;;;1.17;0.70;;;11.90;96.60;;;;;;4964998;28;20245;-56
2021/04/25 09:27:48;;;;;;;1.60;1.10;;;12.10;97.90;;;;;;4964674;28;20300;-55
2021/04/25 09:30:22;;;;;;;1.77;1.10;;;12.50;96.80;;;;;;4956788;28;20604;-52
2021/04/25 09:32:59;;;;;;;1.90;1.00;;;12.40;96.40;;;;;;4959160;28;20273;-51
2021/04/25 09:35:27;;;;;;;1.87;1.10;;;12.20;96.80;;;;;;4944795;28;20253;-52
2021/04/25 09:37:56;;;;;;;1.43;1.00;;;12.00;98.30;;;;;;4941670;28;20578;-55
2021/04/25 09:40:25;;;;;;;1.80;1.10;;;12.20;97.40;;;;;;4942015;28;20265;-54
2021/04/25 09:43:02;;;;;;;1.33;0.80;;;12.20;97.10;;;;;;4941135;28;20244;-52
2021/04/25 09:45:31;;;;;;;3.17;0.93;;;12.10;96.80;;;;;;4944196;28;20249;-53
2021/04/25 09:48:01;;;;;;;1.83;0.93;;;12.40;95.70;;;;;;4942708;28;20254;-50
2021/04/25 09:50:31;;;;;;;0.93;0.73;;;13.00;95.70;;;;;;4940901;28;20242;-52
2021/04/25 09:53:01;;;;;;;2.73;0.70;;;13.00;91.80;;;;;;4944454;28;20678;-55
2021/04/25 09:55:32;;;;;;;1.00;0.80;;;12.70;92.70;;;;;;4959417;28;20609;-52
2021/04/25 09:58:08;;;;;;;0.73;0.60;;;12.10;93.30;;;;;;4941590;28;20254;-52
2021/04/25 10:00:40;;;;;;;0.77;0.60;;;11.70;93.40;;;;;;4941119;28;20338;-54
2021/04/25 10:03:10;;;;;;;2.03;0.73;;;11.70;95.30;;;;;;4971989;28;20262;-51
2021/04/25 10:05:40;;;;;;;1.67;0.70;;;11.60;93.20;;;;;;4967358;28;20259;-52
2021/04/25 10:08:08;;;;;;;1.73;0.90;;;11.30;94.20;;;;;;4968135;28;20392;-52
2021/04/25 10:10:37;;;;;;;2.00;0.70;;;11.40;93.00;;;;;;4957444;28;20229;-51
2021/04/25 10:13:04;;;;;;;1.80;0.80;;;11.50;92.50;;;;;;4967133;28;20584;-54
2021/04/25 10:15:31;;;;;;;1.43;0.80;;;11.30;94.20;;;;;;4959539;28;20237;-54
2021/04/25 10:17:58;;;;;;;1.67;0.80;;;11.80;94.90;;;;;;4964657;28;20284;-51
2021/04/25 10:20:26;;;;;;;0.73;0.60;;;12.30;93.30;;;;;;4957118;28;20293;-54
2021/04/25 10:22:55;;;;;;;2.33;1.00;;;12.70;93.00;;;;;;4959388;28;20245;-55
2021/04/25 10:25:34;;;;;;;1.40;0.93;;;13.30;90.70;;;;;;4960847;28;20788;-54
2021/04/25 10:28:05;;;;;;;1.83;0.93;;;13.60;85.40;;;;;;4959996;28;20252;-54
2021/04/25 10:30:37;;;;;;;2.07;1.07;;;14.00;89.80;;;;;;4962957;28;20716;-51
2021/04/25 10:33:06;;;;;;;1.47;1.00;;;14.70;86.60;;;;;;4944895;28;20254;-51
2021/04/25 10:35:35;;;;;;;2.23;0.97;;;14.80;83.90;;;;;;4947230;28;20294;-51
2021/04/25 10:38:04;;;;;;;1.30;0.90;;;14.00;83.60;;;;;;4949726;28;20262;-51
2021/04/25 10:40:35;;;;;;;2.43;0.80;;;13.20;84.80;;;;;;4944240;28;20330;-55
2021/04/25 10:43:09;;;;;;;1.83;1.10;;;12.30;86.10;;;;;;4943198;28;20306;-55
2021/04/25 10:45:58;;;;;;;1.97;0.70;;;12.10;88.30;;;;;;4947346;28;20719;-52
2021/04/25 10:48:31;;;;;;;2.27;0.90;;;12.70;89.60;;;;;;4944259;28;20321;-53
2021/04/25 10:51:19;;;;;;;1.10;0.60;;;13.60;87.40;;;;;;4950988;28;20253;-52
2021/04/25 10:53:48;;;;;;;0.83;0.80;;;13.70;85.10;;;;;;4943759;28;20245;-52
2021/04/25 10:56:23;;;;;;;1.23;0.80;;;13.80;86.30;;;;;;4953181;28;20241;-50
2021/04/25 10:59:27;;;;;;;2.30;1.00;;;13.80;81.70;;;;;;4948775;28;20725;-52
2021/04/25 11:02:01;;;;;;;1.03;0.80;;;13.70;83.00;;;;;;4964349;28;20234;-50
2021/04/25 11:04:55;;;;;;;1.00;0.90;;;13.80;81.30;;;;;;4979110;28;20738;-51
2021/04/25 11:07:49;;;;;;;2.33;0.90;;;14.20;78.60;;;;;;4983281;28;20636;-52
2021/04/25 11:10:22;;;;;;;2.53;1.00;;;14.70;81.40;;;;;;4967881;28;20258;-50
2021/04/25 11:12:51;;;;;;;1.57;0.83;;;14.60;82.30;;;;;;4971502;28;20234;-51
2021/04/25 11:15:53;;;;;;;2.07;0.77;;;14.00;76.40;;;;;;4969939;28;20770;-54
2021/04/25 11:18:51;;;;;;;1.57;0.70;;;13.60;78.90;;;;;;4970557;28;20245;-52
2021/04/25 11:21:54;;;;;;;2.73;0.80;;;13.40;81.60;;;;;;4968924;28;20249;-51
2021/04/25 11:24:42;;;;;;;1.20;0.80;;;14.40;79.30;;;;;;4987845;28;20643;-52
2021/04/25 11:27:34;;;;;;;0.83;0.73;;;15.20;76.10;;;;;;4988381;28;20333;-51
2021/04/25 11:30:04;;;;;;;0.87;0.67;;;15.70;72.40;;;;;;4988055;28;20697;-53
2021/04/25 11:32:35;;;;;;;0.97;0.70;;;14.60;72.70;;;;;;4968145;28;20318;-52
2021/04/25 11:35:21;;;;;;;1.27;0.63;;;13.80;76.10;;;;;;4967937;28;20598;-54
2021/04/25 11:37:49;;;;;;;1.20;0.80;;;12.90;75.70;;;;;;4959201;28;20300;-52
2021/04/25 11:40:24;;;;;;;1.43;0.70;;;12.90;77.50;;;;;;4960377;28;20234;-53
2021/04/25 11:42:52;;;;;;;1.87;0.70;;;12.80;77.70;;;;;;4963899;28;21173;-51
2021/04/25 11:45:24;;;;;;;1.43;0.80;;;13.40;76.00;;;;;;4957071;28;20388;-54
2021/04/25 11:47:55;;;;;;;1.47;0.70;;;13.80;73.90;;;;;;4959355;28;20832;-54
2021/04/25 11:50:29;;;;;;;1.90;0.80;;;14.30;75.90;;;;;;4959685;28;20246;-54
2021/04/25 11:52:57;;;;;;;1.63;0.60;;;14.60;75.80;;;;;;4955160;28;21641;-53
2021/04/25 11:55:24;;;;;;;2.20;0.70;;;14.50;73.90;;;;;;4958704;28;20598;-53
2021/04/25 11:57:53;;;;;;;1.70;0.60;;;14.00;72.80;;;;;;4957424;28;20950;-56
2021/04/25 12:00:24;;;;;;;1.00;0.70;;;13.50;75.50;;;;;;4957947;28;20312;-55
2021/04/25 12:02:54;;;;;;;0.80;0.60;;;13.20;77.50;;;;;;4942143;28;21329;-55
2021/04/25 12:05:25;;;;;;;2.40;0.80;;;13.00;78.30;;;;;;4941111;28;20242;-56
2021/04/25 12:07:54;;;;;;;1.37;0.60;;;13.10;77.30;;;;;;4943199;28;20258;-55
2021/04/25 12:10:30;;;;;;;1.07;0.60;;;13.40;76.90;;;;;;4935336;28;20251;-55
2021/04/25 12:13:17;;;;;;;1.47;0.60;;;13.60;75.10;;;;;;4938835;28;21615;-55
2021/04/25 12:15:51;;;;;;;2.30;0.60;;;13.70;75.80;;;;;;4942185;28;20242;-52
2021/04/25 12:18:22;;;;;;;1.63;0.80;;;13.50;75.50;;;;;;4940468;28;20239;-52
2021/04/25 12:20:53;;;;;;;3.20;0.80;;;13.40;76.40;;;;;;4935339;28;20591;-55
2021/04/25 12:23:23;;;;;;;0.57;0.57;;;13.20;72.90;;;;;;4956398;28;20259;-54
2021/04/25 12:25:53;;;;;;;2.05;0.80;;;13.30;74.20;;;;;;4937077;28;20455;-55
2021/04/25 12:28:35;;;;;;;2.47;0.80;;;13.00;72.90;;;;;;4938285;28;20329;-52
2021/04/25 12:31:03;;;;;;;0.80;0.70;;;12.70;75.10;;;;;;4945395;28;20250;-53
2021/04/25 12:33:39;;;;;;;1.40;0.90;;;13.00;75.60;;;;;;4961910;28;21038;-53
2021/04/25 12:36:10;;;;;;;1.23;0.60;;;12.30;72.90;;;;;;4959478;28;20254;-51
2021/04/25 12:38:39;;;;;;;4.83;0.90;;;12.00;72.40;;;;;;4959166;28;20241;-51
2021/04/25 12:41:10;;;;;;;1.60;0.97;;;12.00;80.60;;;;;;4989489;28;20244;-50
2021/04/25 12:43:52;;;;;;;2.10;0.98;;;12.30;77.10;;;;;;4982493;28;20504;-50
2021/04/25 12:46:22;;;;;;;1.97;0.60;;;12.60;78.10;;;;;;4983083;28;20260;-49
2021/04/25 12:48:54;;;;;;;3.23;0.70;;;12.50;74.60;;;;;;4978664;28;20263;-49
2021/04/25 12:51:25;;;;;;;0.53;0.50;;;12.60;74.00;;;;;;4968597;28;20715;-50
2021/04/25 12:54:17;;;;;;;0.90;0.70;;;12.60;72.70;;;;;;4967228;28;20239;-48
2021/04/25 12:56:52;;;;;;;1.07;0.60;;;12.50;73.30;;;;;;4968320;28;20272;-48
2021/04/25 12:59:30;;;;;;;1.30;0.80;;;12.70;74.60;;;;;;4971914;28;20636;-48
2021/04/25 13:02:13;;;;;;;1.33;0.80;;;13.00;70.60;;;;;;4969721;28;20701;-48
2021/04/25 13:04:45;;;;;;;1.10;0.70;;;12.30;69.80;;;;;;4970875;28;20653;-48
2021/04/25 13:07:40;;;;;;;0.90;0.57;;;11.30;69.80;;;;;;4974299;28;20268;-49